LFYD weather

Public forecast

Using degrees Celsius for public forecast. Weather courtesy of forecast.io.

Closest aviation weather report (METAR) to Damblain Air Base

Closest report is Épinal-Mirecourt Airport, 21.7 nm (40.1 km) NE. Retrieved 2020/08/11 09:30 UTC (14 minutes ago):

LFSG 110930Z AUTO 17006KT 140V200 CAVOK 29/16 Q1016

Closest aviation forecast (TAF) to Damblain Air Base

Closest forecast is Nancy-Ochey (BA 133) Air Base, 32.0 nm (59.3 km) NNE. Retrieved 2020/08/11 09:00 UTC (44 minutes ago):

TAF LFSO 110800Z 1109/1209 20005KT CAVOK TEMPO 1112/1116 SCT080TCU PROB40 TEMPO 1117/1124 4000 SHRA SCT080CB PROB30 TEMPO 1118/1123 VRB15G30KT 2500 TSRA TEMPO 1206/1209 4500 -SHRA SCT070TCU